createdAt,value
2022-09-09T00:02:25.687Z,100145.69
2022-09-09T00:05:03.246Z,100149.19
2022-09-09T00:07:44.387Z,100145.84
2022-09-09T00:10:17.185Z,100144.28
2022-09-09T00:13:12.459Z,100140.78
2022-09-09T00:15:44.379Z,100132.94
2022-09-09T00:18:29.830Z,100124.13
2022-09-09T00:21:18.564Z,100132.84
2022-09-09T00:23:51.828Z,100133.25
2022-09-09T00:26:41.079Z,100138.94
2022-09-09T00:29:16.652Z,100148.31
2022-09-09T00:31:44.161Z,100150.78
2022-09-09T00:34:22.008Z,100149.09
2022-09-09T00:36:54.277Z,100148.66
2022-09-09T00:39:40.132Z,100149.91
2022-09-09T00:42:15.584Z,100137.34
2022-09-09T00:45:13.823Z,100133.75
2022-09-09T00:47:50.826Z,100142.50
2022-09-09T00:50:27.253Z,100136.66
2022-09-09T00:53:13.319Z,100132.31
2022-09-09T00:55:50.095Z,100138.69
2022-09-09T00:58:17.391Z,100139.13
2022-09-09T01:00:51.193Z,100140.06
2022-09-09T01:03:35.335Z,100143.25
2022-09-09T01:06:31.324Z,100142.09
2022-09-09T01:09:23.365Z,100145.56
2022-09-09T01:11:58.750Z,100144.75
2022-09-09T01:14:37.620Z,100147.09
2022-09-09T01:17:16.551Z,100137.81
2022-09-09T01:19:43.821Z,100137.34
2022-09-09T01:23:01.913Z,100129.78
2022-09-09T01:25:44.318Z,100127.41
2022-09-09T01:28:17.017Z,100130.25
2022-09-09T01:30:44.451Z,100125.81
2022-09-09T01:33:18.172Z,100135.09
2022-09-09T01:36:11.264Z,100143.28
2022-09-09T01:38:38.927Z,100136.88
2022-09-09T01:41:06.282Z,100143.69
2022-09-09T01:43:33.902Z,100140.59
2022-09-09T01:46:02.826Z,100134.91
2022-09-09T01:48:32.449Z,100133.75
2022-09-09T01:50:59.682Z,100130.50
2022-09-09T01:53:26.942Z,100131.66
2022-09-09T01:56:14.548Z,100129.38
2022-09-09T01:59:06.213Z,100136.97
2022-09-09T02:01:47.351Z,100144.84
2022-09-09T02:04:37.572Z,100147.22
2022-09-09T02:07:26.299Z,100153.00
2022-09-09T02:10:06.318Z,100139.75
2022-09-09T02:12:33.643Z,100136.59
2022-09-09T02:15:10.970Z,100131.84
2022-09-09T02:17:42.353Z,100137.75
2022-09-09T02:20:14.009Z,100133.47
2022-09-09T02:22:46.053Z,100132.78
2022-09-09T02:25:16.802Z,100124.00
2022-09-09T02:27:46.826Z,100126.34
2022-09-09T02:30:14.623Z,100123.56
2022-09-09T02:32:44.736Z,100129.69
2022-09-09T02:35:16.324Z,100128.53
2022-09-09T02:37:45.672Z,100124.00
2022-09-09T02:40:15.535Z,100126.31
2022-09-09T02:42:44.891Z,100125.06
2022-09-09T02:45:15.093Z,100126.53
2022-09-09T02:47:56.873Z,100126.53
2022-09-09T02:50:32.052Z,100129.91
2022-09-09T02:53:17.003Z,100133.25
2022-09-09T02:56:00.435Z,100126.13
2022-09-09T02:58:28.317Z,100124.19
2022-09-09T03:00:57.038Z,100126.13
2022-09-09T03:03:25.228Z,100124.41
2022-09-09T03:05:52.533Z,100132.06
2022-09-09T03:08:19.863Z,100126.78
2022-09-09T03:10:47.165Z,100129.47
2022-09-09T03:13:14.386Z,100125.84
2022-09-09T03:15:43.703Z,100119.09
2022-09-09T03:18:10.928Z,100122.13
2022-09-09T03:20:38.216Z,100113.22
2022-09-09T03:23:05.928Z,100115.28
2022-09-09T03:25:33.445Z,100117.31
2022-09-09T03:28:01.351Z,100121.50
2022-09-09T03:30:29.299Z,100119.75
2022-09-09T03:32:56.696Z,100122.41
2022-09-09T03:35:24.008Z,100129.63
2022-09-09T03:37:53.965Z,100127.44
2022-09-09T03:40:21.274Z,100123.63
2022-09-09T03:42:48.542Z,100128.09
2022-09-09T03:45:15.858Z,100126.50
2022-09-09T03:47:43.361Z,100123.34
2022-09-09T03:50:14.368Z,100120.16
2022-09-09T03:52:44.680Z,100120.69
2022-09-09T03:55:14.933Z,100130.47
2022-09-09T03:57:42.870Z,100134.41
2022-09-09T04:00:10.995Z,100141.59
2022-09-09T04:02:38.408Z,100141.06
2022-09-09T04:05:06.731Z,100146.75
2022-09-09T04:07:37.054Z,100155.09
2022-09-09T04:10:05.287Z,100158.56
2022-09-09T04:12:33.310Z,100148.28
2022-09-09T04:15:01.271Z,100147.47
2022-09-09T04:17:29.313Z,100170.72
2022-09-09T04:19:57.194Z,100171.38
2022-09-09T04:22:25.128Z,100174.41
2022-09-09T04:24:53.022Z,100171.84
2022-09-09T04:27:20.350Z,100176.72
2022-09-09T04:29:47.650Z,100179.19
2022-09-09T04:32:14.957Z,100183.13
2022-09-09T04:34:42.528Z,100184.38
2022-09-09T04:37:09.770Z,100187.56
2022-09-09T04:39:39.968Z,100183.81
2022-09-09T04:42:07.463Z,100196.63
2022-09-09T04:44:37.827Z,100195.81
2022-09-09T04:47:05.304Z,100199.09
2022-09-09T04:49:32.650Z,100197.50
2022-09-09T04:52:00.194Z,100200.13
2022-09-09T04:54:28.658Z,100202.16
2022-09-09T04:56:56.435Z,100203.88
2022-09-09T04:59:26.145Z,100191.97
2022-09-09T05:01:53.715Z,100192.78
2022-09-09T05:04:22.201Z,100190.28
2022-09-09T05:06:49.541Z,100185.75
2022-09-09T05:09:19.303Z,100193.22
2022-09-09T05:11:46.657Z,100183.50
2022-09-09T05:14:14.416Z,100188.94
2022-09-09T05:16:42.541Z,100188.13
2022-09-09T05:19:10.071Z,100175.34
2022-09-09T05:21:37.521Z,100174.00
2022-09-09T05:24:08.478Z,100167.19
2022-09-09T05:26:35.853Z,100181.78
2022-09-09T05:29:05.623Z,100174.66
2022-09-09T05:31:33.015Z,100178.47
2022-09-09T05:34:00.491Z,100170.91
2022-09-09T05:36:27.946Z,100166.94
2022-09-09T05:38:58.125Z,100178.03
2022-09-09T05:41:25.411Z,100178.25
2022-09-09T05:43:52.779Z,100188.41
2022-09-09T05:46:22.835Z,100178.22
2022-09-09T05:48:51.479Z,100170.84
2022-09-09T05:51:21.514Z,100175.19
2022-09-09T05:53:49.891Z,100174.00
2022-09-09T05:56:22.840Z,100170.25
2022-09-09T05:58:50.770Z,100165.28
2022-09-09T06:01:20.532Z,100161.63
2022-09-09T06:03:49.390Z,100160.66
2022-09-09T06:06:36.705Z,100147.03
2022-09-09T06:09:05.893Z,100163.00
2022-09-09T06:11:34.465Z,100158.53
2022-09-09T06:14:01.761Z,100164.19
2022-09-09T06:16:30.381Z,100164.84
2022-09-09T06:18:58.385Z,100173.28
2022-09-09T06:21:30.795Z,100166.97
2022-09-09T06:24:01.000Z,100162.22
2022-09-09T06:26:40.053Z,100164.75
2022-09-09T06:29:09.002Z,100165.91
2022-09-09T06:31:39.346Z,100173.53
2022-09-09T06:34:08.373Z,100170.75
2022-09-09T06:36:41.836Z,100169.59
2022-09-09T06:39:14.660Z,100173.25
2022-09-09T06:41:43.175Z,100171.66
2022-09-09T06:44:10.468Z,100175.22
2022-09-09T06:46:37.824Z,100178.91
2022-09-09T06:49:05.165Z,100174.88
2022-09-09T06:51:36.842Z,100174.41
2022-09-09T06:54:05.271Z,100162.66
2022-09-09T06:56:40.424Z,100165.19
2022-09-09T06:59:08.894Z,100164.22
2022-09-09T07:01:38.721Z,100155.78
2022-09-09T07:04:06.599Z,100160.25
2022-09-09T07:06:36.743Z,100150.06
2022-09-09T07:09:07.064Z,100157.53
2022-09-09T07:11:41.951Z,100168.88
2022-09-09T07:14:10.200Z,100166.78
2022-09-09T07:16:37.496Z,100168.78
2022-09-09T07:19:05.507Z,100176.69
2022-09-09T07:21:34.316Z,100183.56
2022-09-09T07:24:02.057Z,100192.09
2022-09-09T07:26:32.306Z,100195.94
2022-09-09T07:28:59.761Z,100192.00
2022-09-09T07:31:33.258Z,100195.34
2022-09-09T07:34:01.335Z,100193.75
2022-09-09T07:36:33.559Z,100194.72
2022-09-09T07:39:07.360Z,100201.03
2022-09-09T07:41:37.726Z,100210.72
2022-09-09T07:44:14.312Z,100204.03
2022-09-09T07:46:44.613Z,100202.03
2022-09-09T07:49:13.359Z,100203.16
2022-09-09T07:51:43.406Z,100202.91
2022-09-09T07:54:13.734Z,100197.91
2022-09-09T07:56:42.075Z,100190.94
2022-09-09T07:59:09.911Z,100188.38
2022-09-09T08:01:38.463Z,100189.81
2022-09-09T08:04:08.667Z,100190.19
2022-09-09T08:06:39.152Z,100185.34
2022-09-09T08:09:10.598Z,100170.72
2022-09-09T08:11:39.672Z,100175.34
2022-09-09T08:14:09.312Z,100177.91
2022-09-09T08:16:39.127Z,100189.03
2022-09-09T08:19:09.760Z,100178.34
2022-09-09T08:21:41.270Z,100175.78
2022-09-09T08:24:10.672Z,100176.00
2022-09-09T08:26:41.589Z,100177.91
2022-09-09T08:29:11.254Z,100184.69
2022-09-09T08:31:45.505Z,100197.50
2022-09-09T08:34:12.917Z,100197.06
2022-09-09T08:36:43.181Z,100199.75
2022-09-09T08:39:12.555Z,100197.31
2022-09-09T08:41:42.773Z,100198.78
2022-09-09T08:44:10.166Z,100203.75
2022-09-09T08:47:22.586Z,100196.00
2022-09-09T08:50:11.903Z,100187.72
2022-09-09T08:52:45.778Z,100193.03
2022-09-09T08:55:13.111Z,100199.22
2022-09-09T08:57:40.462Z,100200.22
2022-09-09T09:00:11.339Z,100193.03
2022-09-09T09:03:17.669Z,100187.72
2022-09-09T09:06:08.077Z,100191.59
2022-09-09T09:08:38.293Z,100187.84
2022-09-09T09:11:06.060Z,100195.84
2022-09-09T09:13:53.395Z,100185.63
2022-09-09T09:16:39.993Z,100187.56
2022-09-09T09:19:15.232Z,100190.16
2022-09-09T09:21:43.566Z,100198.28
2022-09-09T09:24:21.250Z,100186.38
2022-09-09T09:26:52.904Z,100191.59
2022-09-09T09:29:27.845Z,100195.84
2022-09-09T09:32:06.286Z,100184.19
2022-09-09T09:34:36.920Z,100191.84
2022-09-09T09:37:17.207Z,100177.50
2022-09-09T09:42:27.640Z,100172.75
2022-09-09T09:44:55.044Z,100177.50
2022-09-09T09:47:23.741Z,100175.38
2022-09-09T09:49:58.884Z,100171.69
2022-09-09T09:52:29.436Z,100168.63
2022-09-09T09:55:01.778Z,100178.38
2022-09-09T09:57:33.595Z,100177.44
2022-09-09T10:00:22.488Z,100171.84
2022-09-09T10:02:50.983Z,100162.72
2022-09-09T10:05:35.033Z,100168.81
2022-09-09T10:08:21.654Z,100173.34
2022-09-09T10:11:05.746Z,100177.56
2022-09-09T10:13:32.948Z,100170.25
2022-09-09T10:16:27.910Z,100167.00
2022-09-09T10:19:03.893Z,100147.19
2022-09-09T10:22:03.236Z,100155.22
2022-09-09T10:24:52.620Z,100159.41
2022-09-09T10:27:41.970Z,100163.56
2022-09-09T10:30:36.736Z,100163.56
2022-09-09T10:33:06.956Z,100161.53
2022-09-09T10:35:45.692Z,100177.91
2022-09-09T10:38:42.832Z,100199.19
2022-09-09T10:41:27.702Z,100211.53
2022-09-09T10:44:00.407Z,100210.66
2022-09-09T10:46:48.479Z,100210.94
2022-09-09T10:53:04.689Z,100208.13
2022-09-09T10:55:54.121Z,100204.28
2022-09-09T10:59:00.756Z,100217.84
2022-09-09T11:01:40.286Z,100206.16
2022-09-09T11:04:20.109Z,100206.16
2022-09-09T11:06:55.461Z,100197.19
2022-09-09T11:09:28.304Z,100194.53
2022-09-09T11:11:57.591Z,100209.06
2022-09-09T11:14:36.808Z,100204.91
2022-09-09T11:17:11.600Z,100208.66
2022-09-09T11:19:43.854Z,100214.81
2022-09-09T11:22:16.805Z,100206.63
2022-09-09T11:25:28.944Z,100193.78
2022-09-09T11:28:43.325Z,100181.50
2022-09-09T11:31:43.365Z,100181.25
2022-09-09T11:34:53.887Z,100180.03
2022-09-09T11:38:16.530Z,100180.66
2022-09-09T11:40:47.278Z,100185.66
2022-09-09T11:43:26.797Z,100167.00
2022-09-09T11:46:00.231Z,100163.44
2022-09-09T11:48:34.232Z,100172.47
2022-09-09T11:51:26.391Z,100182.50
2022-09-09T11:54:02.007Z,100174.84
2022-09-09T11:56:56.967Z,100176.34
2022-09-09T11:59:34.421Z,100174.06
2022-09-09T12:02:18.305Z,100171.50
2022-09-09T12:04:57.221Z,100170.31
2022-09-09T12:07:39.378Z,100170.66
2022-09-09T12:10:09.103Z,100167.63
2022-09-09T12:12:43.168Z,100165.63
2022-09-09T12:15:11.245Z,100171.84
2022-09-09T12:17:49.428Z,100162.81
2022-09-09T12:20:27.971Z,100164.06
2022-09-09T12:23:03.734Z,100152.13
2022-09-09T12:25:58.703Z,100142.91
2022-09-09T12:28:41.863Z,100143.78
2022-09-09T12:31:58.925Z,100133.38
2022-09-09T12:35:10.875Z,100130.47
2022-09-09T12:37:45.819Z,100132.66
2022-09-09T12:40:23.724Z,100125.97
2022-09-09T12:43:00.608Z,100128.41
2022-09-09T12:45:31.127Z,100119.44
2022-09-09T12:48:02.782Z,100125.69
2022-09-09T12:50:44.675Z,100108.28
2022-09-09T12:53:26.333Z,100100.78
2022-09-09T12:56:05.509Z,100091.16
2022-09-09T12:58:38.145Z,100095.53
2022-09-09T13:01:06.793Z,100099.94
2022-09-09T13:03:44.148Z,100093.91
2022-09-09T13:06:25.589Z,100096.69
2022-09-09T13:09:01.536Z,100099.22
2022-09-09T13:11:44.016Z,100094.75
2022-09-09T13:14:26.494Z,100102.59
2022-09-09T13:17:07.048Z,100096.78
2022-09-09T13:19:45.790Z,100098.81
2022-09-09T13:22:20.682Z,100094.84
2022-09-09T13:24:48.420Z,100093.53
2022-09-09T13:27:32.834Z,100092.44
2022-09-09T13:30:02.941Z,100090.78
2022-09-09T13:32:30.200Z,100084.47
2022-09-09T13:35:03.050Z,100081.50
2022-09-09T13:37:39.095Z,100081.75
2022-09-09T13:40:07.936Z,100073.25
2022-09-09T13:42:41.842Z,100067.59
2022-09-09T13:45:24.365Z,100054.78
2022-09-09T13:47:51.687Z,100048.63
2022-09-09T13:50:25.948Z,100053.84
2022-09-09T13:52:55.702Z,100058.06
2022-09-09T13:55:25.117Z,100058.41
2022-09-09T13:57:59.055Z,100051.03
2022-09-09T14:00:34.321Z,100042.13
2022-09-09T14:03:01.869Z,100042.00
2022-09-09T14:05:30.982Z,100047.06
2022-09-09T14:08:02.791Z,100032.22
2022-09-09T14:10:31.344Z,100043.19
2022-09-09T14:13:01.339Z,100050.88
2022-09-09T14:15:28.694Z,100048.63
2022-09-09T14:17:59.515Z,100040.72
2022-09-09T14:20:26.787Z,100043.78
2022-09-09T14:22:54.307Z,100042.22
2022-09-09T14:25:21.983Z,100046.16
2022-09-09T14:27:52.192Z,100038.38
2022-09-09T14:30:19.506Z,100035.78
2022-09-09T14:32:56.451Z,100042.50
2022-09-09T14:35:23.729Z,100036.72
2022-09-09T14:37:51.172Z,100036.44
2022-09-09T14:40:18.648Z,100035.63
2022-09-09T14:42:46.614Z,100042.59
2022-09-09T14:45:20.503Z,100043.66
2022-09-09T14:47:48.319Z,100039.31
2022-09-09T14:50:18.944Z,100039.66
2022-09-09T14:52:46.452Z,100039.25
2022-09-09T14:55:14.245Z,100037.69
2022-09-09T14:57:42.427Z,100045.94
2022-09-09T15:00:11.578Z,100030.69
2022-09-09T15:02:41.809Z,100029.91
2022-09-09T15:05:09.939Z,100035.06
2022-09-09T15:07:40.325Z,100049.03
2022-09-09T15:10:08.025Z,100037.38
2022-09-09T15:12:36.486Z,100039.25
2022-09-09T15:15:07.896Z,100043.16
2022-09-09T15:17:35.826Z,100043.16
2022-09-09T15:20:06.525Z,100039.91
2022-09-09T15:22:33.998Z,100042.53
2022-09-09T15:25:02.536Z,100041.31
2022-09-09T15:27:29.813Z,100044.44
2022-09-09T15:30:02.903Z,100044.34
2022-09-09T15:32:34.266Z,100048.97
2022-09-09T15:35:03.628Z,100046.97
2022-09-09T15:37:33.875Z,100045.03
2022-09-09T15:40:01.422Z,100040.72
2022-09-09T15:42:29.006Z,100040.31
2022-09-09T15:44:57.138Z,100039.50
2022-09-09T15:47:28.131Z,100040.31
2022-09-09T15:49:56.434Z,100036.41
2022-09-09T15:52:26.989Z,100056.69
2022-09-09T15:54:54.442Z,100042.13
2022-09-09T15:57:25.984Z,100044.78
2022-09-09T15:59:54.235Z,100052.47
2022-09-09T16:02:27.708Z,100048.13
2022-09-09T16:04:57.341Z,100047.19
2022-09-09T16:07:25.133Z,100042.84
2022-09-09T16:09:59.031Z,100043.50
2022-09-09T16:12:26.494Z,100043.75
2022-09-09T16:14:59.350Z,100024.22
2022-09-09T16:17:30.571Z,100033.56
2022-09-09T16:20:01.306Z,100026.91
2022-09-09T16:22:32.138Z,100030.69
2022-09-09T16:24:59.580Z,100038.47
2022-09-09T16:27:26.859Z,100029.13
2022-09-09T16:30:03.431Z,100029.53
2022-09-09T16:32:33.549Z,100025.47
2022-09-09T16:35:03.931Z,100019.53
2022-09-09T16:37:31.207Z,100022.53
2022-09-09T16:40:01.309Z,100023.97
2022-09-09T16:42:29.208Z,100018.09
2022-09-09T16:44:56.979Z,100016.09
2022-09-09T16:47:24.416Z,100013.59
2022-09-09T16:49:52.353Z,100018.09
2022-09-09T16:52:20.668Z,100021.97
2022-09-09T16:54:51.590Z,100026.28
2022-09-09T16:57:18.838Z,100018.94
2022-09-09T16:59:46.514Z,100025.19
2022-09-09T17:02:14.113Z,100022.38
2022-09-09T17:04:45.113Z,100028.63
2022-09-09T17:07:13.936Z,100028.63
2022-09-09T17:09:44.383Z,100034.97
2022-09-09T17:12:14.899Z,100029.56
2022-09-09T17:14:45.893Z,100033.34
2022-09-09T17:17:31.774Z,100032.47
2022-09-09T17:20:11.943Z,100041.47
2022-09-09T17:22:40.310Z,100025.69
2022-09-09T17:25:08.900Z,100030.19
2022-09-09T17:27:38.876Z,100036.72
2022-09-09T17:30:10.615Z,100028.19
2022-09-09T17:32:39.339Z,100039.00
2022-09-09T17:35:07.060Z,100036.16
2022-09-09T17:37:34.381Z,100043.91
2022-09-09T17:40:02.247Z,100049.38
2022-09-09T17:42:30.352Z,100056.56
2022-09-09T17:44:57.595Z,100058.06
2022-09-09T17:47:24.930Z,100050.69
2022-09-09T17:49:55.107Z,100059.22
2022-09-09T17:52:22.464Z,100060.53
2022-09-09T17:54:49.861Z,100060.16
2022-09-09T17:57:20.212Z,100064.19
2022-09-09T17:59:47.948Z,100076.72
2022-09-09T18:02:15.338Z,100070.56
2022-09-09T18:04:42.738Z,100075.69
2022-09-09T18:07:10.402Z,100073.41
2022-09-09T18:09:37.919Z,100077.28
2022-09-09T18:12:05.647Z,100084.50
2022-09-09T18:14:34.240Z,100086.09
2022-09-09T18:17:05.058Z,100084.16
2022-09-09T18:19:35.732Z,100087.91
2022-09-09T18:22:06.759Z,100092.91
2022-09-09T18:24:34.619Z,100096.06
2022-09-09T18:27:02.357Z,100091.75
2022-09-09T18:29:30.034Z,100096.22
2022-09-09T18:31:57.566Z,100091.97
2022-09-09T18:34:26.912Z,100084.84
2022-09-09T18:36:58.320Z,100093.34
2022-09-09T18:39:29.517Z,100085.19
2022-09-09T18:41:59.732Z,100081.78
2022-09-09T18:44:33.540Z,100082.47
2022-09-09T18:47:04.204Z,100086.25
2022-09-09T18:49:35.240Z,100084.25
2022-09-09T18:52:13.036Z,100082.78
2022-09-09T18:55:04.062Z,100077.41
2022-09-09T18:57:36.570Z,100077.34
2022-09-09T19:00:05.913Z,100084.97
2022-09-09T19:02:45.096Z,100085.66
2022-09-09T19:05:18.234Z,100079.22
2022-09-09T19:07:51.810Z,100082.72
2022-09-09T19:10:21.184Z,100080.00
2022-09-09T19:12:56.214Z,100079.88
2022-09-09T19:15:26.879Z,100081.44
2022-09-09T19:17:57.284Z,100085.13
2022-09-09T19:20:25.211Z,100078.63
2022-09-09T19:22:53.144Z,100088.84
2022-09-09T19:25:24.508Z,100088.44
2022-09-09T19:27:56.096Z,100090.78
2022-09-09T19:30:26.660Z,100080.00
2022-09-09T19:33:02.181Z,100077.56
2022-09-09T19:35:30.042Z,100077.38
2022-09-09T19:38:03.223Z,100075.56
2022-09-09T19:40:30.592Z,100068.69
2022-09-09T19:43:06.223Z,100074.03
2022-09-09T19:45:35.494Z,100070.78
2022-09-09T19:48:10.823Z,100069.03
2022-09-09T19:50:47.628Z,100071.41
2022-09-09T19:53:14.935Z,100071.50
2022-09-09T19:55:42.697Z,100071.84
2022-09-09T19:58:12.929Z,100072.06
2022-09-09T20:00:40.543Z,100066.41
2022-09-09T20:03:19.633Z,100066.75
2022-09-09T20:05:52.569Z,100058.63
2022-09-09T20:08:26.763Z,100060.31
2022-09-09T20:10:57.277Z,100057.72
2022-09-09T20:13:28.912Z,100065.53
2022-09-09T20:15:58.531Z,100068.47
2022-09-09T20:18:44.210Z,100060.47
2022-09-09T20:21:25.160Z,100059.84
2022-09-09T20:23:58.055Z,100064.47
2022-09-09T20:26:26.552Z,100068.91
2022-09-09T20:28:55.713Z,100070.13
2022-09-09T20:31:26.898Z,100075.25
2022-09-09T20:33:55.919Z,100068.69
2022-09-09T20:36:31.913Z,100073.31
2022-09-09T20:39:25.951Z,100071.16
2022-09-09T20:41:53.270Z,100067.97
2022-09-09T20:44:24.415Z,100057.47
2022-09-09T20:46:53.931Z,100070.94
2022-09-09T20:49:26.914Z,100056.88
2022-09-09T20:51:54.414Z,100058.38
2022-09-09T20:54:25.053Z,100051.91
2022-09-09T20:56:54.960Z,100065.47
2022-09-09T20:59:25.255Z,100063.56
2022-09-09T21:01:53.567Z,100053.50
2022-09-09T21:04:27.531Z,100057.34
2022-09-09T21:06:55.872Z,100061.06
2022-09-09T21:09:26.507Z,100062.78
2022-09-09T21:11:54.033Z,100062.53
2022-09-09T21:14:30.325Z,100073.72
2022-09-09T21:17:00.668Z,100067.72
2022-09-09T21:19:37.355Z,100062.28
2022-09-09T21:22:05.057Z,100055.16
2022-09-09T21:24:37.737Z,100057.53
2022-09-09T21:27:05.692Z,100053.88
2022-09-09T21:29:33.669Z,100050.72
2022-09-09T21:32:00.953Z,100050.84
2022-09-09T21:34:28.782Z,100057.06
2022-09-09T21:37:01.364Z,100054.66
2022-09-09T21:39:28.554Z,100056.34
2022-09-09T21:41:58.819Z,100049.34
2022-09-09T21:44:33.054Z,100043.94
2022-09-09T21:47:04.467Z,100045.03
2022-09-09T21:49:34.229Z,100046.53
2022-09-09T21:52:03.811Z,100045.63
2022-09-09T21:54:34.123Z,100055.22
2022-09-09T21:57:07.482Z,100056.22
2022-09-09T21:59:35.185Z,100055.09
2022-09-09T22:02:02.513Z,100057.47
2022-09-09T22:04:32.383Z,100060.19
2022-09-09T22:07:02.136Z,100054.44
2022-09-09T22:09:32.335Z,100056.00
2022-09-09T22:12:00.059Z,100052.84
2022-09-09T22:14:30.172Z,100048.59
2022-09-09T22:16:57.443Z,100038.28
2022-09-09T22:19:24.822Z,100035.91
2022-09-09T22:21:52.031Z,100046.75
2022-09-09T22:24:19.215Z,100049.25
2022-09-09T22:26:46.473Z,100030.03
2022-09-09T22:29:16.445Z,100032.75
2022-09-09T22:31:43.791Z,100038.94
2022-09-09T22:34:10.959Z,100025.84
2022-09-09T22:36:42.029Z,100020.06
2022-09-09T22:39:09.058Z,100016.09
2022-09-09T22:41:36.626Z,100016.88
2022-09-09T22:44:03.815Z,100016.38
2022-09-09T22:46:31.065Z,100013.72
2022-09-09T22:48:58.640Z,100018.06
2022-09-09T22:51:26.214Z,100015.31
2022-09-09T22:53:53.817Z,100016.25
2022-09-09T22:56:21.567Z,100015.22
2022-09-09T22:58:53.615Z,100016.34
2022-09-09T23:01:21.812Z,100012.84
2022-09-09T23:03:49.810Z,100020.53
2022-09-09T23:06:20.159Z,100023.47
2022-09-09T23:08:53.345Z,100025.66
2022-09-09T23:11:20.527Z,100021.19
2022-09-09T23:13:53.508Z,100021.16
2022-09-09T23:16:26.517Z,100019.09
2022-09-09T23:18:54.274Z,100018.66
2022-09-09T23:21:23.430Z,100015.94
2022-09-09T23:23:54.033Z,100006.22
2022-09-09T23:26:23.347Z,100002.38
2022-09-09T23:28:51.975Z,99999.88
2022-09-09T23:31:22.792Z,99988.06
2022-09-09T23:33:53.308Z,99992.09
2022-09-09T23:36:23.270Z,99998.56
2022-09-09T23:38:53.526Z,99997.63
2022-09-09T23:41:20.763Z,100003.59
2022-09-09T23:43:52.460Z,99995.59
2022-09-09T23:46:22.875Z,99994.00
2022-09-09T23:48:50.734Z,99996.78
2022-09-09T23:51:21.720Z,99995.22
2022-09-09T23:53:53.282Z,100001.75
2022-09-09T23:56:22.517Z,100003.44
2022-09-09T23:58:50.483Z,99995.13
